<?xml version="1.0" encoding="utf-8"?>
<gpx xmlns:xsi="http://www.w3.org/2001/XMLSchema-instance" xmlns:xsd="http://www.w3.org/2001/XMLSchema" version="1.1" creator="Shapelink.com" xmlns="http://www.topografix.com/GPX/1/1" xmlns:gpxtpx="http://www.garmin.com/xmlschemas/TrackPointExtension/v1">
  <metadata>
    <name>Gåing 1.88 km, 2012-04-14</name>
    <desc></desc>
    <author><name>Mikael Blom</name></author> 
    <time>2012-04-14T18:20:51Z</time>
  </metadata>
  <trk>
    <name>Gåing 1.88 km, 2012-04-14</name>
    <trkseg>
      <trkpt lat="59.978905" lon="17.7393367">
        <ele>38.1094</ele>
        <time>2012-04-14T18:20:51Z</time>
      </trkpt>
      <trkpt lat="59.978994" lon="17.7392635">
        <ele>38.5901</ele>
        <time>2012-04-14T18:20:57Z</time>
      </trkpt>
      <trkpt lat="59.9791205" lon="17.7391897">
        <ele>38.5901</ele>
        <time>2012-04-14T18:21:05Z</time>
      </trkpt>
      <trkpt lat="59.9792045" lon="17.7391446">
        <ele>39.0707</ele>
        <time>2012-04-14T18:21:11Z</time>
      </trkpt>
      <trkpt lat="59.9793356" lon="17.7390677">
        <ele>39.0707</ele>
        <time>2012-04-14T18:21:20Z</time>
      </trkpt>
      <trkpt lat="59.9794333" lon="17.7390215">
        <ele>39.0707</ele>
        <time>2012-04-14T18:21:28Z</time>
      </trkpt>
      <trkpt lat="59.9795192" lon="17.7389635">
        <ele>39.5513</ele>
        <time>2012-04-14T18:21:36Z</time>
      </trkpt>
      <trkpt lat="59.9795712" lon="17.7389431">
        <ele>40.0321</ele>
        <time>2012-04-14T18:21:40Z</time>
      </trkpt>
      <trkpt lat="59.9797072" lon="17.7388385">
        <ele>44.358</ele>
        <time>2012-04-14T18:21:48Z</time>
      </trkpt>
      <trkpt lat="59.9797738" lon="17.7387848">
        <ele>45.7999</ele>
        <time>2012-04-14T18:21:53Z</time>
      </trkpt>
      <trkpt lat="59.9797982" lon="17.7387518">
        <ele>46.2806</ele>
        <time>2012-04-14T18:21:55Z</time>
      </trkpt>
      <trkpt lat="59.979838" lon="17.7387356">
        <ele>45.7999</ele>
        <time>2012-04-14T18:21:58Z</time>
      </trkpt>
      <trkpt lat="59.9799482" lon="17.7387636">
        <ele>45.3192</ele>
        <time>2012-04-14T18:22:05Z</time>
      </trkpt>
      <trkpt lat="59.9799607" lon="17.7387649">
        <ele>44.8386</ele>
        <time>2012-04-14T18:22:06Z</time>
      </trkpt>
      <trkpt lat="59.9799939" lon="17.7387777">
        <ele>45.7999</ele>
        <time>2012-04-14T18:22:08Z</time>
      </trkpt>
      <trkpt lat="59.9800743" lon="17.7387781">
        <ele>47.2418</ele>
        <time>2012-04-14T18:22:13Z</time>
      </trkpt>
      <trkpt lat="59.9801475" lon="17.7387559">
        <ele>46.7612</ele>
        <time>2012-04-14T18:22:20Z</time>
      </trkpt>
      <trkpt lat="59.9802255" lon="17.738716">
        <ele>48.2034</ele>
        <time>2012-04-14T18:22:25Z</time>
      </trkpt>
      <trkpt lat="59.9802932" lon="17.7387204">
        <ele>49.6453</ele>
        <time>2012-04-14T18:22:29Z</time>
      </trkpt>
      <trkpt lat="59.9803627" lon="17.7387255">
        <ele>49.1646</ele>
        <time>2012-04-14T18:22:33Z</time>
      </trkpt>
      <trkpt lat="59.980444" lon="17.7387161">
        <ele>48.2034</ele>
        <time>2012-04-14T18:22:38Z</time>
      </trkpt>
      <trkpt lat="59.9805258" lon="17.7386668">
        <ele>50.126</ele>
        <time>2012-04-14T18:22:42Z</time>
      </trkpt>
      <trkpt lat="59.9805942" lon="17.7386514">
        <ele>50.6066</ele>
        <time>2012-04-14T18:22:45Z</time>
      </trkpt>
      <trkpt lat="59.9806766" lon="17.7386508">
        <ele>50.126</ele>
        <time>2012-04-14T18:22:50Z</time>
      </trkpt>
      <trkpt lat="59.9807108" lon="17.7386646">
        <ele>49.1646</ele>
        <time>2012-04-14T18:22:53Z</time>
      </trkpt>
      <trkpt lat="59.9807767" lon="17.738613">
        <ele>50.126</ele>
        <time>2012-04-14T18:22:57Z</time>
      </trkpt>
      <trkpt lat="59.9808238" lon="17.7385864">
        <ele>49.6453</ele>
        <time>2012-04-14T18:23:01Z</time>
      </trkpt>
      <trkpt lat="59.9808978" lon="17.7385486">
        <ele>53.0098</ele>
        <time>2012-04-14T18:23:06Z</time>
      </trkpt>
      <trkpt lat="59.9810225" lon="17.7384727">
        <ele>56.8551</ele>
        <time>2012-04-14T18:23:13Z</time>
      </trkpt>
      <trkpt lat="59.9810429" lon="17.738455">
        <ele>57.3358</ele>
        <time>2012-04-14T18:23:14Z</time>
      </trkpt>
      <trkpt lat="59.9811158" lon="17.7384583">
        <ele>58.2971</ele>
        <time>2012-04-14T18:23:18Z</time>
      </trkpt>
      <trkpt lat="59.9812473" lon="17.7384053">
        <ele>61.181</ele>
        <time>2012-04-14T18:23:25Z</time>
      </trkpt>
      <trkpt lat="59.9813318" lon="17.7383928">
        <ele>61.6617</ele>
        <time>2012-04-14T18:23:31Z</time>
      </trkpt>
      <trkpt lat="59.9814349" lon="17.7383654">
        <ele>62.6229</ele>
        <time>2012-04-14T18:23:38Z</time>
      </trkpt>
      <trkpt lat="59.9814614" lon="17.7383489">
        <ele>63.1036</ele>
        <time>2012-04-14T18:23:40Z</time>
      </trkpt>
      <trkpt lat="59.9815829" lon="17.7383887">
        <ele>59.7391</ele>
        <time>2012-04-14T18:23:48Z</time>
      </trkpt>
      <trkpt lat="59.9816815" lon="17.7384355">
        <ele>55.8938</ele>
        <time>2012-04-14T18:23:55Z</time>
      </trkpt>
      <trkpt lat="59.9817814" lon="17.7384079">
        <ele>54.4518</ele>
        <time>2012-04-14T18:24:01Z</time>
      </trkpt>
      <trkpt lat="59.9818425" lon="17.7383668">
        <ele>53.9712</ele>
        <time>2012-04-14T18:24:05Z</time>
      </trkpt>
      <trkpt lat="59.9819348" lon="17.7383143">
        <ele>55.8938</ele>
        <time>2012-04-14T18:24:11Z</time>
      </trkpt>
      <trkpt lat="59.9819681" lon="17.7382868">
        <ele>54.9324</ele>
        <time>2012-04-14T18:24:14Z</time>
      </trkpt>
      <trkpt lat="59.9820783" lon="17.7382421">
        <ele>53.0098</ele>
        <time>2012-04-14T18:24:21Z</time>
      </trkpt>
      <trkpt lat="59.9821974" lon="17.7381668">
        <ele>54.9324</ele>
        <time>2012-04-14T18:24:27Z</time>
      </trkpt>
      <trkpt lat="59.982305" lon="17.7381214">
        <ele>53.4905</ele>
        <time>2012-04-14T18:24:33Z</time>
      </trkpt>
      <trkpt lat="59.9823227" lon="17.7381148">
        <ele>53.9712</ele>
        <time>2012-04-14T18:24:34Z</time>
      </trkpt>
      <trkpt lat="59.9824233" lon="17.7381359">
        <ele>51.0872</ele>
        <time>2012-04-14T18:24:41Z</time>
      </trkpt>
      <trkpt lat="59.9825072" lon="17.7381168">
        <ele>52.0486</ele>
        <time>2012-04-14T18:24:47Z</time>
      </trkpt>
      <trkpt lat="59.9825859" lon="17.7380909">
        <ele>52.0486</ele>
        <time>2012-04-14T18:24:53Z</time>
      </trkpt>
      <trkpt lat="59.9827051" lon="17.7381008">
        <ele>53.9712</ele>
        <time>2012-04-14T18:25:00Z</time>
      </trkpt>
      <trkpt lat="59.9827791" lon="17.7381023">
        <ele>52.5292</ele>
        <time>2012-04-14T18:25:04Z</time>
      </trkpt>
      <trkpt lat="59.9828568" lon="17.7381805">
        <ele>48.684</ele>
        <time>2012-04-14T18:25:09Z</time>
      </trkpt>
      <trkpt lat="59.9829474" lon="17.7381844">
        <ele>49.1646</ele>
        <time>2012-04-14T18:25:14Z</time>
      </trkpt>
      <trkpt lat="59.9830359" lon="17.7381855">
        <ele>49.6453</ele>
        <time>2012-04-14T18:25:20Z</time>
      </trkpt>
      <trkpt lat="59.9830641" lon="17.7381609">
        <ele>50.126</ele>
        <time>2012-04-14T18:25:22Z</time>
      </trkpt>
      <trkpt lat="59.9831606" lon="17.7381102">
        <ele>53.9712</ele>
        <time>2012-04-14T18:25:27Z</time>
      </trkpt>
      <trkpt lat="59.9832346" lon="17.7380174">
        <ele>59.2584</ele>
        <time>2012-04-14T18:25:32Z</time>
      </trkpt>
      <trkpt lat="59.9833244" lon="17.7379943">
        <ele>62.1423</ele>
        <time>2012-04-14T18:25:37Z</time>
      </trkpt>
      <trkpt lat="59.9833335" lon="17.7379743">
        <ele>61.6617</ele>
        <time>2012-04-14T18:25:38Z</time>
      </trkpt>
      <trkpt lat="59.9834811" lon="17.7379075">
        <ele>64.0651</ele>
        <time>2012-04-14T18:25:46Z</time>
      </trkpt>
      <trkpt lat="59.9835503" lon="17.7379049">
        <ele>64.0651</ele>
        <time>2012-04-14T18:25:49Z</time>
      </trkpt>
      <trkpt lat="59.9836515" lon="17.7379448">
        <ele>65.0264</ele>
        <time>2012-04-14T18:25:57Z</time>
      </trkpt>
      <trkpt lat="59.983701" lon="17.7379731">
        <ele>65.0264</ele>
        <time>2012-04-14T18:26:01Z</time>
      </trkpt>
      <trkpt lat="59.98382" lon="17.7379584">
        <ele>62.1423</ele>
        <time>2012-04-14T18:26:08Z</time>
      </trkpt>
      <trkpt lat="59.9838535" lon="17.737948">
        <ele>62.1423</ele>
        <time>2012-04-14T18:26:10Z</time>
      </trkpt>
      <trkpt lat="59.9839308" lon="17.737967">
        <ele>64.0651</ele>
        <time>2012-04-14T18:26:15Z</time>
      </trkpt>
      <trkpt lat="59.9840293" lon="17.7379557">
        <ele>67.9103</ele>
        <time>2012-04-14T18:26:22Z</time>
      </trkpt>
      <trkpt lat="59.9841479" lon="17.7380031">
        <ele>64.0651</ele>
        <time>2012-04-14T18:26:28Z</time>
      </trkpt>
      <trkpt lat="59.9842559" lon="17.738053">
        <ele>56.8551</ele>
        <time>2012-04-14T18:26:34Z</time>
      </trkpt>
      <trkpt lat="59.9842662" lon="17.7380655">
        <ele>54.9324</ele>
        <time>2012-04-14T18:26:35Z</time>
      </trkpt>
      <trkpt lat="59.9843373" lon="17.738052">
        <ele>53.4905</ele>
        <time>2012-04-14T18:26:40Z</time>
      </trkpt>
      <trkpt lat="59.9843903" lon="17.7380453">
        <ele>52.5292</ele>
        <time>2012-04-14T18:26:43Z</time>
      </trkpt>
      <trkpt lat="59.9844703" lon="17.7380506">
        <ele>51.0872</ele>
        <time>2012-04-14T18:26:48Z</time>
      </trkpt>
      <trkpt lat="59.9845886" lon="17.7379821">
        <ele>55.8938</ele>
        <time>2012-04-14T18:26:54Z</time>
      </trkpt>
      <trkpt lat="59.9846459" lon="17.7379881">
        <ele>57.8165</ele>
        <time>2012-04-14T18:26:57Z</time>
      </trkpt>
      <trkpt lat="59.9846896" lon="17.7379702">
        <ele>58.7777</ele>
        <time>2012-04-14T18:27:00Z</time>
      </trkpt>
      <trkpt lat="59.9847614" lon="17.7380059">
        <ele>57.8165</ele>
        <time>2012-04-14T18:27:06Z</time>
      </trkpt>
      <trkpt lat="59.9848368" lon="17.7380333">
        <ele>56.3745</ele>
        <time>2012-04-14T18:27:11Z</time>
      </trkpt>
      <trkpt lat="59.9848987" lon="17.7380492">
        <ele>55.4131</ele>
        <time>2012-04-14T18:27:15Z</time>
      </trkpt>
      <trkpt lat="59.9850366" lon="17.7381397">
        <ele>53.0098</ele>
        <time>2012-04-14T18:27:23Z</time>
      </trkpt>
      <trkpt lat="59.9851712" lon="17.7381888">
        <ele>52.5292</ele>
        <time>2012-04-14T18:27:30Z</time>
      </trkpt>
      <trkpt lat="59.9852216" lon="17.7382109">
        <ele>52.0486</ele>
        <time>2012-04-14T18:27:33Z</time>
      </trkpt>
      <trkpt lat="59.9853115" lon="17.7382436">
        <ele>50.6066</ele>
        <time>2012-04-14T18:27:39Z</time>
      </trkpt>
      <trkpt lat="59.9854242" lon="17.7383259">
        <ele>50.6066</ele>
        <time>2012-04-14T18:27:46Z</time>
      </trkpt>
      <trkpt lat="59.9855007" lon="17.7384101">
        <ele>47.7225</ele>
        <time>2012-04-14T18:27:52Z</time>
      </trkpt>
      <trkpt lat="59.985525" lon="17.7384305">
        <ele>46.2806</ele>
        <time>2012-04-14T18:27:54Z</time>
      </trkpt>
      <trkpt lat="59.9856184" lon="17.7384473">
        <ele>45.3192</ele>
        <time>2012-04-14T18:28:00Z</time>
      </trkpt>
      <trkpt lat="59.9856344" lon="17.738445">
        <ele>44.8386</ele>
        <time>2012-04-14T18:28:01Z</time>
      </trkpt>
      <trkpt lat="59.9856693" lon="17.7384385">
        <ele>44.8386</ele>
        <time>2012-04-14T18:28:03Z</time>
      </trkpt>
      <trkpt lat="59.9857408" lon="17.7384911">
        <ele>44.358</ele>
        <time>2012-04-14T18:28:08Z</time>
      </trkpt>
      <trkpt lat="59.9858316" lon="17.7385939">
        <ele>46.2806</ele>
        <time>2012-04-14T18:28:13Z</time>
      </trkpt>
      <trkpt lat="59.9859405" lon="17.7386352">
        <ele>47.7225</ele>
        <time>2012-04-14T18:28:19Z</time>
      </trkpt>
      <trkpt lat="59.9860587" lon="17.7386068">
        <ele>50.6066</ele>
        <time>2012-04-14T18:28:25Z</time>
      </trkpt>
      <trkpt lat="59.9861379" lon="17.7386083">
        <ele>50.126</ele>
        <time>2012-04-14T18:28:30Z</time>
      </trkpt>
      <trkpt lat="59.9861694" lon="17.7386353">
        <ele>51.5679</ele>
        <time>2012-04-14T18:28:32Z</time>
      </trkpt>
      <trkpt lat="59.9862914" lon="17.7387436">
        <ele>58.7777</ele>
        <time>2012-04-14T18:28:40Z</time>
      </trkpt>
      <trkpt lat="59.9863047" lon="17.7387514">
        <ele>58.2971</ele>
        <time>2012-04-14T18:28:41Z</time>
      </trkpt>
      <trkpt lat="59.9863637" lon="17.7388421">
        <ele>53.4905</ele>
        <time>2012-04-14T18:28:47Z</time>
      </trkpt>
      <trkpt lat="59.9864601" lon="17.7389011">
        <ele>49.1646</ele>
        <time>2012-04-14T18:28:55Z</time>
      </trkpt>
      <trkpt lat="59.9865027" lon="17.7389331">
        <ele>48.684</ele>
        <time>2012-04-14T18:28:58Z</time>
      </trkpt>
      <trkpt lat="59.9865983" lon="17.7389994">
        <ele>49.6453</ele>
        <time>2012-04-14T18:29:04Z</time>
      </trkpt>
      <trkpt lat="59.9866288" lon="17.7390395">
        <ele>51.5679</ele>
        <time>2012-04-14T18:29:06Z</time>
      </trkpt>
      <trkpt lat="59.9867175" lon="17.7391434">
        <ele>50.126</ele>
        <time>2012-04-14T18:29:13Z</time>
      </trkpt>
      <trkpt lat="59.9867881" lon="17.7392262">
        <ele>53.9712</ele>
        <time>2012-04-14T18:29:17Z</time>
      </trkpt>
      <trkpt lat="59.9868915" lon="17.7393035">
        <ele>55.8938</ele>
        <time>2012-04-14T18:29:24Z</time>
      </trkpt>
      <trkpt lat="59.9869621" lon="17.739365">
        <ele>54.9324</ele>
        <time>2012-04-14T18:29:29Z</time>
      </trkpt>
      <trkpt lat="59.9870672" lon="17.7393724">
        <ele>54.4518</ele>
        <time>2012-04-14T18:29:35Z</time>
      </trkpt>
      <trkpt lat="59.9871367" lon="17.7393755">
        <ele>53.4905</ele>
        <time>2012-04-14T18:29:41Z</time>
      </trkpt>
      <trkpt lat="59.9872385" lon="17.7393786">
        <ele>56.3745</ele>
        <time>2012-04-14T18:29:48Z</time>
      </trkpt>
      <trkpt lat="59.9873366" lon="17.7393564">
        <ele>59.7391</ele>
        <time>2012-04-14T18:29:54Z</time>
      </trkpt>
      <trkpt lat="59.9873606" lon="17.7393498">
        <ele>60.2197</ele>
        <time>2012-04-14T18:29:55Z</time>
      </trkpt>
      <trkpt lat="59.9875336" lon="17.7393464">
        <ele>64.5457</ele>
        <time>2012-04-14T18:30:03Z</time>
      </trkpt>
      <trkpt lat="59.9876313" lon="17.7393016">
        <ele>64.5457</ele>
        <time>2012-04-14T18:30:10Z</time>
      </trkpt>
      <trkpt lat="59.987699" lon="17.7393075">
        <ele>65.0264</ele>
        <time>2012-04-14T18:30:15Z</time>
      </trkpt>
      <trkpt lat="59.9878319" lon="17.7393316">
        <ele>66.4683</ele>
        <time>2012-04-14T18:30:22Z</time>
      </trkpt>
      <trkpt lat="59.9879413" lon="17.7393055">
        <ele>68.3909</ele>
        <time>2012-04-14T18:30:28Z</time>
      </trkpt>
      <trkpt lat="59.9879962" lon="17.7392982">
        <ele>66.949</ele>
        <time>2012-04-14T18:30:31Z</time>
      </trkpt>
      <trkpt lat="59.9880821" lon="17.739303">
        <ele>65.0264</ele>
        <time>2012-04-14T18:30:37Z</time>
      </trkpt>
      <trkpt lat="59.9880976" lon="17.7393028">
        <ele>65.0264</ele>
        <time>2012-04-14T18:30:38Z</time>
      </trkpt>
      <trkpt lat="59.9881405" lon="17.73928">
        <ele>63.1036</ele>
        <time>2012-04-14T18:30:41Z</time>
      </trkpt>
      <trkpt lat="59.9882038" lon="17.7392217">
        <ele>63.1036</ele>
        <time>2012-04-14T18:30:45Z</time>
      </trkpt>
      <trkpt lat="59.9883118" lon="17.7391648">
        <ele>62.6229</ele>
        <time>2012-04-14T18:30:53Z</time>
      </trkpt>
      <trkpt lat="59.9883773" lon="17.7391611">
        <ele>60.7003</ele>
        <time>2012-04-14T18:30:58Z</time>
      </trkpt>
      <trkpt lat="59.9885059" lon="17.7390938">
        <ele>60.2197</ele>
        <time>2012-04-14T18:31:06Z</time>
      </trkpt>
      <trkpt lat="59.9886136" lon="17.7390104">
        <ele>61.6617</ele>
        <time>2012-04-14T18:31:12Z</time>
      </trkpt>
      <trkpt lat="59.9886983" lon="17.7389379">
        <ele>61.181</ele>
        <time>2012-04-14T18:31:18Z</time>
      </trkpt>
      <trkpt lat="59.9888487" lon="17.7388529">
        <ele>66.949</ele>
        <time>2012-04-14T18:31:25Z</time>
      </trkpt>
      <trkpt lat="59.9888868" lon="17.7388383">
        <ele>65.9877</ele>
        <time>2012-04-14T18:31:28Z</time>
      </trkpt>
      <trkpt lat="59.9889125" lon="17.7388016">
        <ele>65.5071</ele>
        <time>2012-04-14T18:31:30Z</time>
      </trkpt>
      <trkpt lat="59.9889756" lon="17.7387219">
        <ele>65.0264</ele>
        <time>2012-04-14T18:31:35Z</time>
      </trkpt>
      <trkpt lat="59.9890065" lon="17.7386861">
        <ele>65.0264</ele>
        <time>2012-04-14T18:31:37Z</time>
      </trkpt>
      <trkpt lat="59.9891145" lon="17.7386286">
        <ele>61.6617</ele>
        <time>2012-04-14T18:31:45Z</time>
      </trkpt>
      <trkpt lat="59.9891964" lon="17.7385664">
        <ele>62.6229</ele>
        <time>2012-04-14T18:31:50Z</time>
      </trkpt>
      <trkpt lat="59.9893033" lon="17.7384897">
        <ele>65.5071</ele>
        <time>2012-04-14T18:31:57Z</time>
      </trkpt>
      <trkpt lat="59.9893335" lon="17.738471">
        <ele>65.0264</ele>
        <time>2012-04-14T18:31:59Z</time>
      </trkpt>
      <trkpt lat="59.9894532" lon="17.7384121">
        <ele>66.4683</ele>
        <time>2012-04-14T18:32:06Z</time>
      </trkpt>
      <trkpt lat="59.9894904" lon="17.7383975">
        <ele>64.0651</ele>
        <time>2012-04-14T18:32:10Z</time>
      </trkpt>
      <trkpt lat="59.9895746" lon="17.7384025">
        <ele>62.6229</ele>
        <time>2012-04-14T18:32:15Z</time>
      </trkpt>
      <trkpt lat="59.9896366" lon="17.7384281">
        <ele>64.0651</ele>
        <time>2012-04-14T18:32:18Z</time>
      </trkpt>
      <trkpt lat="59.9896971" lon="17.7384574">
        <ele>64.0651</ele>
        <time>2012-04-14T18:32:23Z</time>
      </trkpt>
      <trkpt lat="59.9897103" lon="17.7384623">
        <ele>64.0651</ele>
        <time>2012-04-14T18:32:24Z</time>
      </trkpt>
      <trkpt lat="59.9898168" lon="17.7383771">
        <ele>63.1036</ele>
        <time>2012-04-14T18:32:31Z</time>
      </trkpt>
      <trkpt lat="59.9898479" lon="17.73837">
        <ele>62.6229</ele>
        <time>2012-04-14T18:32:33Z</time>
      </trkpt>
      <trkpt lat="59.9898973" lon="17.7383471">
        <ele>61.6617</ele>
        <time>2012-04-14T18:32:36Z</time>
      </trkpt>
      <trkpt lat="59.9900221" lon="17.7382694">
        <ele>63.1036</ele>
        <time>2012-04-14T18:32:42Z</time>
      </trkpt>
      <trkpt lat="59.990136" lon="17.7382002">
        <ele>66.4683</ele>
        <time>2012-04-14T18:32:48Z</time>
      </trkpt>
      <trkpt lat="59.9902544" lon="17.7381831">
        <ele>69.3523</ele>
        <time>2012-04-14T18:32:53Z</time>
      </trkpt>
      <trkpt lat="59.9903115" lon="17.738148">
        <ele>66.4683</ele>
        <time>2012-04-14T18:32:59Z</time>
      </trkpt>
      <trkpt lat="59.9903831" lon="17.7381224">
        <ele>65.5071</ele>
        <time>2012-04-14T18:33:04Z</time>
      </trkpt>
      <trkpt lat="59.9904372" lon="17.738051">
        <ele>67.4297</ele>
        <time>2012-04-14T18:33:08Z</time>
      </trkpt>
      <trkpt lat="59.9905415" lon="17.7380323">
        <ele>62.6229</ele>
        <time>2012-04-14T18:33:15Z</time>
      </trkpt>
      <trkpt lat="59.9905738" lon="17.7380038">
        <ele>62.6229</ele>
        <time>2012-04-14T18:33:18Z</time>
      </trkpt>
      <trkpt lat="59.9905978" lon="17.7379952">
        <ele>61.6617</ele>
        <time>2012-04-14T18:33:20Z</time>
      </trkpt>
      <trkpt lat="59.9906903" lon="17.7379676">
        <ele>62.1423</ele>
        <time>2012-04-14T18:33:26Z</time>
      </trkpt>
      <trkpt lat="59.9908131" lon="17.7378334">
        <ele>68.3909</ele>
        <time>2012-04-14T18:33:32Z</time>
      </trkpt>
      <trkpt lat="59.9908266" lon="17.7378081">
        <ele>68.8716</ele>
        <time>2012-04-14T18:33:33Z</time>
      </trkpt>
      <trkpt lat="59.9908893" lon="17.7377749">
        <ele>65.9877</ele>
        <time>2012-04-14T18:33:38Z</time>
      </trkpt>
      <trkpt lat="59.9909829" lon="17.737762">
        <ele>68.3909</ele>
        <time>2012-04-14T18:33:43Z</time>
      </trkpt>
      <trkpt lat="59.990985" lon="17.7377449">
        <ele>67.9103</ele>
        <time>2012-04-14T18:33:44Z</time>
      </trkpt>
      <trkpt lat="59.9910938" lon="17.737667">
        <ele>65.0264</ele>
        <time>2012-04-14T18:33:52Z</time>
      </trkpt>
      <trkpt lat="59.9911569" lon="17.7376371">
        <ele>62.6229</ele>
        <time>2012-04-14T18:33:58Z</time>
      </trkpt>
      <trkpt lat="59.9912797" lon="17.7376185">
        <ele>61.6617</ele>
        <time>2012-04-14T18:34:05Z</time>
      </trkpt>
      <trkpt lat="59.9913952" lon="17.7376405">
        <ele>64.5457</ele>
        <time>2012-04-14T18:34:11Z</time>
      </trkpt>
      <trkpt lat="59.9915235" lon="17.7376577">
        <ele>64.5457</ele>
        <time>2012-04-14T18:34:18Z</time>
      </trkpt>
      <trkpt lat="59.9916171" lon="17.737662">
        <ele>63.1036</ele>
        <time>2012-04-14T18:34:23Z</time>
      </trkpt>
      <trkpt lat="59.9916292" lon="17.7376783">
        <ele>63.5844</ele>
        <time>2012-04-14T18:34:24Z</time>
      </trkpt>
      <trkpt lat="59.9917656" lon="17.7376564">
        <ele>65.0264</ele>
        <time>2012-04-14T18:34:31Z</time>
      </trkpt>
      <trkpt lat="59.9918133" lon="17.7376506">
        <ele>64.0651</ele>
        <time>2012-04-14T18:34:34Z</time>
      </trkpt>
      <trkpt lat="59.9918444" lon="17.7376304">
        <ele>63.5844</ele>
        <time>2012-04-14T18:34:36Z</time>
      </trkpt>
      <trkpt lat="59.9919229" lon="17.7375636">
        <ele>62.6229</ele>
        <time>2012-04-14T18:34:43Z</time>
      </trkpt>
      <trkpt lat="59.9919462" lon="17.7375476">
        <ele>61.6617</ele>
        <time>2012-04-14T18:34:45Z</time>
      </trkpt>
      <trkpt lat="59.992028" lon="17.7375184">
        <ele>59.7391</ele>
        <time>2012-04-14T18:34:51Z</time>
      </trkpt>
      <trkpt lat="59.992095" lon="17.7374875">
        <ele>57.3358</ele>
        <time>2012-04-14T18:34:56Z</time>
      </trkpt>
      <trkpt lat="59.9921604" lon="17.7374988">
        <ele>56.3745</ele>
        <time>2012-04-14T18:35:00Z</time>
      </trkpt>
      <trkpt lat="59.9922223" lon="17.7374853">
        <ele>56.8551</ele>
        <time>2012-04-14T18:35:04Z</time>
      </trkpt>
      <trkpt lat="59.9923556" lon="17.7373826">
        <ele>58.7777</ele>
        <time>2012-04-14T18:35:12Z</time>
      </trkpt>
      <trkpt lat="59.9924318" lon="17.7372511">
        <ele>61.181</ele>
        <time>2012-04-14T18:35:18Z</time>
      </trkpt>
      <trkpt lat="59.9924567" lon="17.737204">
        <ele>62.6229</ele>
        <time>2012-04-14T18:35:21Z</time>
      </trkpt>
      <trkpt lat="59.9925438" lon="17.7371055">
        <ele>64.0651</ele>
        <time>2012-04-14T18:35:28Z</time>
      </trkpt>
      <trkpt lat="59.9926141" lon="17.7369917">
        <ele>64.0651</ele>
        <time>2012-04-14T18:35:33Z</time>
      </trkpt>
    </trkseg>
  </trk>
</gpx>